sensor_id;sensor_type;location;lat;lon;timestamp;P1;durP1;ratioP1;P2;durP2;ratioP2
70800;SDS011;59616;52.170;5.386;2023-03-01T00:02:11;14.02;;;5.70;;
70800;SDS011;59616;52.170;5.386;2023-03-01T00:07:05;14.00;;;5.43;;
70800;SDS011;59616;52.170;5.386;2023-03-01T00:11:58;16.25;;;6.00;;
70800;SDS011;59616;52.170;5.386;2023-03-01T00:14:25;13.68;;;5.80;;
70800;SDS011;59616;52.170;5.386;2023-03-01T00:19:20;12.27;;;5.75;;
70800;SDS011;59616;52.170;5.386;2023-03-01T00:21:48;24.38;;;6.35;;
70800;SDS011;59616;52.170;5.386;2023-03-01T00:24:15;15.48;;;6.45;;
70800;SDS011;59616;52.170;5.386;2023-03-01T00:26:42;14.45;;;5.80;;
70800;SDS011;59616;52.170;5.386;2023-03-01T00:31:36;14.80;;;5.72;;
70800;SDS011;59616;52.170;5.386;2023-03-01T00:34:04;12.30;;;5.85;;
70800;SDS011;59616;52.170;5.386;2023-03-01T00:36:33;15.35;;;6.03;;
70800;SDS011;59616;52.170;5.386;2023-03-01T00:39:00;13.40;;;5.95;;
70800;SDS011;59616;52.170;5.386;2023-03-01T00:41:28;15.80;;;5.90;;
70800;SDS011;59616;52.170;5.386;2023-03-01T00:46:23;21.02;;;6.60;;
70800;SDS011;59616;52.170;5.386;2023-03-01T00:48:50;13.70;;;6.63;;
70800;SDS011;59616;52.170;5.386;2023-03-01T00:53:46;16.70;;;6.22;;
70800;SDS011;59616;52.170;5.386;2023-03-01T00:56:14;14.75;;;6.38;;
70800;SDS011;59616;52.170;5.386;2023-03-01T00:58:42;14.85;;;6.00;;
70800;SDS011;59616;52.170;5.386;2023-03-01T01:03:47;17.00;;;6.45;;
70800;SDS011;59616;52.170;5.386;2023-03-01T01:06:15;17.02;;;6.68;;
70800;SDS011;59616;52.170;5.386;2023-03-01T01:08:43;16.05;;;6.45;;
70800;SDS011;59616;52.170;5.386;2023-03-01T01:11:11;14.73;;;6.40;;
70800;SDS011;59616;52.170;5.386;2023-03-01T01:13:38;16.77;;;6.25;;
70800;SDS011;59616;52.170;5.386;2023-03-01T01:16:06;15.40;;;6.72;;
70800;SDS011;59616;52.170;5.386;2023-03-01T01:18:33;15.85;;;6.70;;
70800;SDS011;59616;52.170;5.386;2023-03-01T01:21:05;18.05;;;6.80;;
70800;SDS011;59616;52.170;5.386;2023-03-01T01:23:32;17.25;;;6.45;;
70800;SDS011;59616;52.170;5.386;2023-03-01T01:26:04;18.17;;;7.10;;
70800;SDS011;59616;52.170;5.386;2023-03-01T01:28:31;17.95;;;7.00;;
70800;SDS011;59616;52.170;5.386;2023-03-01T01:30:58;14.52;;;6.13;;
70800;SDS011;59616;52.170;5.386;2023-03-01T01:33:26;16.17;;;5.93;;
70800;SDS011;59616;52.170;5.386;2023-03-01T01:35:53;16.38;;;7.03;;
70800;SDS011;59616;52.170;5.386;2023-03-01T01:40:48;14.05;;;5.68;;
70800;SDS011;59616;52.170;5.386;2023-03-01T01:43:21;13.50;;;6.35;;
70800;SDS011;59616;52.170;5.386;2023-03-01T01:45:49;15.23;;;6.10;;
70800;SDS011;59616;52.170;5.386;2023-03-01T01:48:18;16.20;;;6.53;;
70800;SDS011;59616;52.170;5.386;2023-03-01T01:50:46;16.75;;;7.45;;
70800;SDS011;59616;52.170;5.386;2023-03-01T01:53:18;15.57;;;6.70;;
70800;SDS011;59616;52.170;5.386;2023-03-01T01:55:48;16.77;;;6.72;;
70800;SDS011;59616;52.170;5.386;2023-03-01T01:58:17;17.58;;;7.10;;
70800;SDS011;59616;52.170;5.386;2023-03-01T02:00:44;16.77;;;6.72;;
70800;SDS011;59616;52.170;5.386;2023-03-01T02:03:14;18.35;;;6.78;;
70800;SDS011;59616;52.170;5.386;2023-03-01T02:08:21;17.55;;;7.20;;
70800;SDS011;59616;52.170;5.386;2023-03-01T02:10:49;17.60;;;7.15;;
70800;SDS011;59616;52.170;5.386;2023-03-01T02:13:17;15.25;;;6.18;;
70800;SDS011;59616;52.170;5.386;2023-03-01T02:15:44;21.05;;;7.78;;
70800;SDS011;59616;52.170;5.386;2023-03-01T02:18:13;18.90;;;7.05;;
70800;SDS011;59616;52.170;5.386;2023-03-01T02:20:44;17.23;;;6.82;;
70800;SDS011;59616;52.170;5.386;2023-03-01T02:23:15;18.95;;;7.32;;
70800;SDS011;59616;52.170;5.386;2023-03-01T02:25:54;16.35;;;7.05;;
70800;SDS011;59616;52.170;5.386;2023-03-01T02:28:32;17.17;;;6.47;;
70800;SDS011;59616;52.170;5.386;2023-03-01T02:31:00;18.85;;;6.88;;
70800;SDS011;59616;52.170;5.386;2023-03-01T02:33:46;16.00;;;7.18;;
70800;SDS011;59616;52.170;5.386;2023-03-01T02:36:18;15.93;;;7.47;;
70800;SDS011;59616;52.170;5.386;2023-03-01T02:38:46;16.60;;;6.97;;
70800;SDS011;59616;52.170;5.386;2023-03-01T02:41:15;16.98;;;6.75;;
70800;SDS011;59616;52.170;5.386;2023-03-01T02:43:42;20.83;;;7.45;;
70800;SDS011;59616;52.170;5.386;2023-03-01T02:48:48;17.13;;;6.80;;
70800;SDS011;59616;52.170;5.386;2023-03-01T02:51:27;17.42;;;7.20;;
70800;SDS011;59616;52.170;5.386;2023-03-01T02:54:18;15.10;;;6.43;;
70800;SDS011;59616;52.170;5.386;2023-03-01T02:56:47;16.20;;;6.78;;
70800;SDS011;59616;52.170;5.386;2023-03-01T02:59:18;17.63;;;7.85;;
70800;SDS011;59616;52.170;5.386;2023-03-01T03:01:46;19.00;;;8.00;;
70800;SDS011;59616;52.170;5.386;2023-03-01T03:04:17;16.83;;;7.50;;
70800;SDS011;59616;52.170;5.386;2023-03-01T03:06:48;16.73;;;6.95;;
70800;SDS011;59616;52.170;5.386;2023-03-01T03:09:15;18.00;;;7.03;;
70800;SDS011;59616;52.170;5.386;2023-03-01T03:11:44;17.83;;;7.40;;
70800;SDS011;59616;52.170;5.386;2023-03-01T03:14:12;18.10;;;7.50;;
70800;SDS011;59616;52.170;5.386;2023-03-01T03:16:43;19.77;;;8.77;;
70800;SDS011;59616;52.170;5.386;2023-03-01T03:19:11;17.33;;;7.57;;
70800;SDS011;59616;52.170;5.386;2023-03-01T03:21:38;21.55;;;8.18;;
70800;SDS011;59616;52.170;5.386;2023-03-01T03:24:05;19.65;;;7.50;;
70800;SDS011;59616;52.170;5.386;2023-03-01T03:26:33;20.02;;;8.18;;
70800;SDS011;59616;52.170;5.386;2023-03-01T03:29:00;19.85;;;8.07;;
70800;SDS011;59616;52.170;5.386;2023-03-01T03:33:54;21.20;;;8.10;;
70800;SDS011;59616;52.170;5.386;2023-03-01T03:36:22;18.95;;;8.05;;
70800;SDS011;59616;52.170;5.386;2023-03-01T03:38:49;16.38;;;7.63;;
70800;SDS011;59616;52.170;5.386;2023-03-01T03:43:44;14.48;;;6.53;;
70800;SDS011;59616;52.170;5.386;2023-03-01T03:46:11;18.10;;;7.10;;
70800;SDS011;59616;52.170;5.386;2023-03-01T03:48:41;17.20;;;7.88;;
70800;SDS011;59616;52.170;5.386;2023-03-01T03:51:15;19.60;;;7.68;;
70800;SDS011;59616;52.170;5.386;2023-03-01T03:53:43;21.88;;;7.85;;
70800;SDS011;59616;52.170;5.386;2023-03-01T03:56:10;19.00;;;7.80;;
70800;SDS011;59616;52.170;5.386;2023-03-01T04:01:04;18.70;;;7.63;;
70800;SDS011;59616;52.170;5.386;2023-03-01T04:03:32;16.98;;;7.53;;
70800;SDS011;59616;52.170;5.386;2023-03-01T04:06:01;17.50;;;7.85;;
70800;SDS011;59616;52.170;5.386;2023-03-01T04:08:28;20.67;;;7.85;;
70800;SDS011;59616;52.170;5.386;2023-03-01T04:10:57;16.50;;;8.15;;
70800;SDS011;59616;52.170;5.386;2023-03-01T04:13:25;16.27;;;7.70;;
70800;SDS011;59616;52.170;5.386;2023-03-01T04:15:52;21.83;;;8.50;;
70800;SDS011;59616;52.170;5.386;2023-03-01T04:18:23;19.27;;;9.10;;
70800;SDS011;59616;52.170;5.386;2023-03-01T04:20:52;18.60;;;7.50;;
70800;SDS011;59616;52.170;5.386;2023-03-01T04:23:21;20.02;;;8.13;;
70800;SDS011;59616;52.170;5.386;2023-03-01T04:28:30;15.18;;;6.95;;
70800;SDS011;59616;52.170;5.386;2023-03-01T04:33:27;18.73;;;7.43;;
70800;SDS011;59616;52.170;5.386;2023-03-01T04:35:54;21.55;;;7.55;;
70800;SDS011;59616;52.170;5.386;2023-03-01T04:38:21;22.27;;;8.57;;
70800;SDS011;59616;52.170;5.386;2023-03-01T04:40:48;18.52;;;7.50;;
70800;SDS011;59616;52.170;5.386;2023-03-01T04:43:15;18.65;;;7.95;;
70800;SDS011;59616;52.170;5.386;2023-03-01T04:45:44;17.17;;;7.30;;
70800;SDS011;59616;52.170;5.386;2023-03-01T04:48:11;20.05;;;8.63;;
70800;SDS011;59616;52.170;5.386;2023-03-01T04:50:38;18.75;;;8.02;;
70800;SDS011;59616;52.170;5.386;2023-03-01T04:53:06;18.60;;;8.10;;
70800;SDS011;59616;52.170;5.386;2023-03-01T04:55:33;20.38;;;7.70;;
70800;SDS011;59616;52.170;5.386;2023-03-01T04:58:00;20.33;;;8.63;;
70800;SDS011;59616;52.170;5.386;2023-03-01T05:00:27;18.67;;;8.02;;
70800;SDS011;59616;52.170;5.386;2023-03-01T05:02:55;18.48;;;7.93;;
70800;SDS011;59616;52.170;5.386;2023-03-01T05:05:24;19.23;;;7.80;;
70800;SDS011;59616;52.170;5.386;2023-03-01T05:07:55;22.13;;;8.25;;
70800;SDS011;59616;52.170;5.386;2023-03-01T05:10:23;16.17;;;6.95;;
70800;SDS011;59616;52.170;5.386;2023-03-01T05:12:50;17.52;;;7.97;;
70800;SDS011;59616;52.170;5.386;2023-03-01T05:15:21;16.85;;;7.00;;
70800;SDS011;59616;52.170;5.386;2023-03-01T05:17:51;18.63;;;7.47;;
70800;SDS011;59616;52.170;5.386;2023-03-01T05:20:20;15.70;;;7.07;;
70800;SDS011;59616;52.170;5.386;2023-03-01T05:22:49;19.00;;;7.35;;
70800;SDS011;59616;52.170;5.386;2023-03-01T05:25:16;17.75;;;7.30;;
70800;SDS011;59616;52.170;5.386;2023-03-01T05:27:43;18.05;;;8.02;;
70800;SDS011;59616;52.170;5.386;2023-03-01T05:30:10;18.48;;;8.27;;
70800;SDS011;59616;52.170;5.386;2023-03-01T05:32:44;18.23;;;7.68;;
70800;SDS011;59616;52.170;5.386;2023-03-01T05:35:12;16.75;;;7.32;;
70800;SDS011;59616;52.170;5.386;2023-03-01T05:37:41;20.65;;;8.18;;
70800;SDS011;59616;52.170;5.386;2023-03-01T05:40:09;17.33;;;7.53;;
70800;SDS011;59616;52.170;5.386;2023-03-01T05:42:45;18.92;;;7.63;;
70800;SDS011;59616;52.170;5.386;2023-03-01T05:45:12;17.52;;;7.43;;
70800;SDS011;59616;52.170;5.386;2023-03-01T05:47:40;18.45;;;7.63;;
70800;SDS011;59616;52.170;5.386;2023-03-01T05:50:15;18.83;;;7.95;;
70800;SDS011;59616;52.170;5.386;2023-03-01T05:52:49;21.65;;;7.65;;
70800;SDS011;59616;52.170;5.386;2023-03-01T05:55:17;19.85;;;7.28;;
70800;SDS011;59616;52.170;5.386;2023-03-01T05:57:44;20.27;;;7.93;;
70800;SDS011;59616;52.170;5.386;2023-03-01T06:00:12;18.15;;;7.78;;
70800;SDS011;59616;52.170;5.386;2023-03-01T06:02:40;18.83;;;7.70;;
70800;SDS011;59616;52.170;5.386;2023-03-01T06:07:35;16.27;;;6.40;;
70800;SDS011;59616;52.170;5.386;2023-03-01T06:12:33;16.50;;;7.57;;
70800;SDS011;59616;52.170;5.386;2023-03-01T06:15:00;19.98;;;7.75;;
70800;SDS011;59616;52.170;5.386;2023-03-01T06:17:32;20.83;;;8.82;;
70800;SDS011;59616;52.170;5.386;2023-03-01T06:20:04;18.38;;;8.38;;
70800;SDS011;59616;52.170;5.386;2023-03-01T06:22:32;18.55;;;8.43;;
70800;SDS011;59616;52.170;5.386;2023-03-01T06:24:59;19.92;;;7.57;;
70800;SDS011;59616;52.170;5.386;2023-03-01T06:27:26;20.13;;;7.95;;
70800;SDS011;59616;52.170;5.386;2023-03-01T06:29:53;24.52;;;8.25;;
70800;SDS011;59616;52.170;5.386;2023-03-01T06:32:20;17.80;;;7.95;;
70800;SDS011;59616;52.170;5.386;2023-03-01T06:37:14;19.45;;;8.00;;
70800;SDS011;59616;52.170;5.386;2023-03-01T06:39:41;23.42;;;8.88;;
70800;SDS011;59616;52.170;5.386;2023-03-01T06:42:08;16.45;;;6.95;;
70800;SDS011;59616;52.170;5.386;2023-03-01T06:44:36;21.70;;;8.98;;
70800;SDS011;59616;52.170;5.386;2023-03-01T06:47:03;20.65;;;8.10;;
70800;SDS011;59616;52.170;5.386;2023-03-01T06:49:30;19.98;;;8.65;;
70800;SDS011;59616;52.170;5.386;2023-03-01T06:51:57;20.92;;;8.40;;
70800;SDS011;59616;52.170;5.386;2023-03-01T06:54:25;20.92;;;8.10;;
70800;SDS011;59616;52.170;5.386;2023-03-01T06:56:52;19.58;;;8.65;;
70800;SDS011;59616;52.170;5.386;2023-03-01T07:01:46;17.88;;;7.90;;
70800;SDS011;59616;52.170;5.386;2023-03-01T07:04:13;24.90;;;9.43;;
70800;SDS011;59616;52.170;5.386;2023-03-01T07:06:40;21.45;;;9.00;;
70800;SDS011;59616;52.170;5.386;2023-03-01T07:09:07;22.80;;;8.65;;
70800;SDS011;59616;52.170;5.386;2023-03-01T07:11:34;24.52;;;9.18;;
70800;SDS011;59616;52.170;5.386;2023-03-01T07:14:02;22.75;;;8.50;;
70800;SDS011;59616;52.170;5.386;2023-03-01T07:16:29;21.63;;;9.02;;
70800;SDS011;59616;52.170;5.386;2023-03-01T07:18:57;24.15;;;7.95;;
70800;SDS011;59616;52.170;5.386;2023-03-01T07:21:25;21.30;;;8.57;;
70800;SDS011;59616;52.170;5.386;2023-03-01T07:23:52;23.75;;;8.85;;
70800;SDS011;59616;52.170;5.386;2023-03-01T07:28:46;20.58;;;8.48;;
70800;SDS011;59616;52.170;5.386;2023-03-01T07:31:14;29.60;;;10.95;;
70800;SDS011;59616;52.170;5.386;2023-03-01T07:33:41;28.88;;;9.48;;
70800;SDS011;59616;52.170;5.386;2023-03-01T07:36:08;20.60;;;8.75;;
70800;SDS011;59616;52.170;5.386;2023-03-01T07:38:35;25.25;;;9.90;;
70800;SDS011;59616;52.170;5.386;2023-03-01T07:43:30;22.13;;;8.93;;
70800;SDS011;59616;52.170;5.386;2023-03-01T07:45:58;22.65;;;9.80;;
70800;SDS011;59616;52.170;5.386;2023-03-01T07:48:26;23.95;;;9.55;;
70800;SDS011;59616;52.170;5.386;2023-03-01T07:50:53;23.15;;;9.95;;
70800;SDS011;59616;52.170;5.386;2023-03-01T07:53:21;21.92;;;9.40;;
70800;SDS011;59616;52.170;5.386;2023-03-01T07:55:48;27.45;;;10.15;;
70800;SDS011;59616;52.170;5.386;2023-03-01T07:58:15;27.35;;;10.90;;
70800;SDS011;59616;52.170;5.386;2023-03-01T08:00:42;22.23;;;9.38;;
70800;SDS011;59616;52.170;5.386;2023-03-01T08:05:36;24.02;;;9.05;;
70800;SDS011;59616;52.170;5.386;2023-03-01T08:08:03;19.92;;;9.15;;
70800;SDS011;59616;52.170;5.386;2023-03-01T08:10:31;23.38;;;8.93;;
70800;SDS011;59616;52.170;5.386;2023-03-01T08:12:58;22.52;;;9.32;;
70800;SDS011;59616;52.170;5.386;2023-03-01T08:15:25;20.05;;;8.95;;
70800;SDS011;59616;52.170;5.386;2023-03-01T08:17:52;21.65;;;9.65;;
70800;SDS011;59616;52.170;5.386;2023-03-01T08:20:19;26.50;;;9.32;;
70800;SDS011;59616;52.170;5.386;2023-03-01T08:22:46;26.27;;;10.10;;
70800;SDS011;59616;52.170;5.386;2023-03-01T08:27:40;21.60;;;9.32;;
70800;SDS011;59616;52.170;5.386;2023-03-01T08:30:08;24.25;;;9.05;;
70800;SDS011;59616;52.170;5.386;2023-03-01T08:32:36;19.55;;;7.75;;
70800;SDS011;59616;52.170;5.386;2023-03-01T08:35:03;22.00;;;8.77;;
70800;SDS011;59616;52.170;5.386;2023-03-01T08:37:31;20.98;;;8.20;;
70800;SDS011;59616;52.170;5.386;2023-03-01T08:39:59;21.23;;;8.02;;
70800;SDS011;59616;52.170;5.386;2023-03-01T08:42:27;18.63;;;7.50;;
70800;SDS011;59616;52.170;5.386;2023-03-01T08:47:21;16.75;;;6.05;;
70800;SDS011;59616;52.170;5.386;2023-03-01T08:49:49;16.95;;;6.20;;
70800;SDS011;59616;52.170;5.386;2023-03-01T08:52:16;17.10;;;5.70;;
70800;SDS011;59616;52.170;5.386;2023-03-01T08:54:43;13.95;;;5.03;;
70800;SDS011;59616;52.170;5.386;2023-03-01T08:57:10;14.57;;;5.50;;
70800;SDS011;59616;52.170;5.386;2023-03-01T08:59:38;15.70;;;5.15;;
70800;SDS011;59616;52.170;5.386;2023-03-01T09:02:10;20.65;;;6.28;;
70800;SDS011;59616;52.170;5.386;2023-03-01T09:04:38;12.95;;;5.20;;
70800;SDS011;59616;52.170;5.386;2023-03-01T09:07:06;15.48;;;5.65;;
70800;SDS011;59616;52.170;5.386;2023-03-01T09:09:34;16.58;;;5.53;;
70800;SDS011;59616;52.170;5.386;2023-03-01T09:12:01;12.98;;;5.00;;
70800;SDS011;59616;52.170;5.386;2023-03-01T09:14:28;12.77;;;4.85;;
70800;SDS011;59616;52.170;5.386;2023-03-01T09:16:55;12.57;;;4.80;;
70800;SDS011;59616;52.170;5.386;2023-03-01T09:19:23;13.55;;;4.95;;
70800;SDS011;59616;52.170;5.386;2023-03-01T09:21:52;12.23;;;4.50;;
70800;SDS011;59616;52.170;5.386;2023-03-01T09:26:47;9.90;;;4.00;;
70800;SDS011;59616;52.170;5.386;2023-03-01T09:29:16;11.20;;;4.30;;
70800;SDS011;59616;52.170;5.386;2023-03-01T09:31:44;11.63;;;3.90;;
70800;SDS011;59616;52.170;5.386;2023-03-01T09:36:37;10.85;;;3.65;;
70800;SDS011;59616;52.170;5.386;2023-03-01T09:39:05;12.88;;;4.50;;
70800;SDS011;59616;52.170;5.386;2023-03-01T09:44:38;11.15;;;4.18;;
70800;SDS011;59616;52.170;5.386;2023-03-01T09:47:09;8.85;;;3.58;;
70800;SDS011;59616;52.170;5.386;2023-03-01T09:49:40;12.15;;;3.80;;
70800;SDS011;59616;52.170;5.386;2023-03-01T09:54:46;13.40;;;3.35;;
70800;SDS011;59616;52.170;5.386;2023-03-01T09:59:47;9.77;;;3.63;;
70800;SDS011;59616;52.170;5.386;2023-03-01T10:02:21;8.65;;;2.75;;
70800;SDS011;59616;52.170;5.386;2023-03-01T10:04:52;8.85;;;3.25;;
70800;SDS011;59616;52.170;5.386;2023-03-01T10:07:32;7.82;;;3.10;;
70800;SDS011;59616;52.170;5.386;2023-03-01T10:10:07;8.95;;;2.58;;
70800;SDS011;59616;52.170;5.386;2023-03-01T10:12:35;8.35;;;2.88;;
70800;SDS011;59616;52.170;5.386;2023-03-01T10:15:10;7.15;;;2.50;;
70800;SDS011;59616;52.170;5.386;2023-03-01T10:20:17;7.30;;;2.30;;
70800;SDS011;59616;52.170;5.386;2023-03-01T10:22:44;8.55;;;2.88;;
70800;SDS011;59616;52.170;5.386;2023-03-01T10:28:17;8.70;;;2.47;;
70800;SDS011;59616;52.170;5.386;2023-03-01T10:30:44;7.30;;;2.85;;
70800;SDS011;59616;52.170;5.386;2023-03-01T10:33:22;8.43;;;2.75;;
70800;SDS011;59616;52.170;5.386;2023-03-01T10:35:50;7.03;;;2.72;;
70800;SDS011;59616;52.170;5.386;2023-03-01T10:38:18;7.00;;;2.78;;
70800;SDS011;59616;52.170;5.386;2023-03-01T10:40:51;8.63;;;2.80;;
70800;SDS011;59616;52.170;5.386;2023-03-01T10:43:18;8.70;;;2.97;;
70800;SDS011;59616;52.170;5.386;2023-03-01T10:45:46;7.38;;;2.85;;
70800;SDS011;59616;52.170;5.386;2023-03-01T10:48:20;10.82;;;3.25;;
70800;SDS011;59616;52.170;5.386;2023-03-01T10:50:51;9.27;;;2.97;;
70800;SDS011;59616;52.170;5.386;2023-03-01T10:56:02;12.02;;;2.90;;
70800;SDS011;59616;52.170;5.386;2023-03-01T10:58:31;6.70;;;2.40;;
70800;SDS011;59616;52.170;5.386;2023-03-01T11:01:02;7.45;;;2.65;;
70800;SDS011;59616;52.170;5.386;2023-03-01T11:03:37;8.70;;;2.28;;
70800;SDS011;59616;52.170;5.386;2023-03-01T11:08:36;9.00;;;2.28;;
70800;SDS011;59616;52.170;5.386;2023-03-01T11:13:36;6.95;;;2.00;;
70800;SDS011;59616;52.170;5.386;2023-03-01T11:16:10;5.10;;;1.92;;
70800;SDS011;59616;52.170;5.386;2023-03-01T11:18:38;5.68;;;1.90;;
70800;SDS011;59616;52.170;5.386;2023-03-01T11:21:14;9.07;;;2.25;;
70800;SDS011;59616;52.170;5.386;2023-03-01T11:23:42;6.82;;;2.22;;
70800;SDS011;59616;52.170;5.386;2023-03-01T11:26:10;6.00;;;2.00;;
70800;SDS011;59616;52.170;5.386;2023-03-01T11:28:39;5.70;;;2.17;;
70800;SDS011;59616;52.170;5.386;2023-03-01T11:31:08;7.85;;;2.35;;
70800;SDS011;59616;52.170;5.386;2023-03-01T11:33:46;7.75;;;2.53;;
70800;SDS011;59616;52.170;5.386;2023-03-01T11:36:39;7.13;;;2.25;;
70800;SDS011;59616;52.170;5.386;2023-03-01T11:41:52;9.40;;;2.40;;
70800;SDS011;59616;52.170;5.386;2023-03-01T11:44:25;10.18;;;2.70;;
70800;SDS011;59616;52.170;5.386;2023-03-01T12:00:14;6.72;;;2.38;;
70800;SDS011;59616;52.170;5.386;2023-03-01T12:05:24;8.25;;;2.30;;
70800;SDS011;59616;52.170;5.386;2023-03-01T12:13:35;8.52;;;2.75;;
70800;SDS011;59616;52.170;5.386;2023-03-01T12:16:14;10.23;;;2.70;;
70800;SDS011;59616;52.170;5.386;2023-03-01T12:24:16;8.18;;;2.83;;
70800;SDS011;59616;52.170;5.386;2023-03-01T12:29:34;9.13;;;3.60;;
70800;SDS011;59616;52.170;5.386;2023-03-01T12:32:25;7.45;;;3.22;;
70800;SDS011;59616;52.170;5.386;2023-03-01T12:45:16;8.10;;;3.22;;
70800;SDS011;59616;52.170;5.386;2023-03-01T12:50:19;6.25;;;2.40;;
70800;SDS011;59616;52.170;5.386;2023-03-01T12:52:49;8.70;;;2.92;;
70800;SDS011;59616;52.170;5.386;2023-03-01T12:55:33;9.30;;;3.08;;
70800;SDS011;59616;52.170;5.386;2023-03-01T13:00:31;10.20;;;2.65;;
70800;SDS011;59616;52.170;5.386;2023-03-01T13:03:10;7.90;;;2.70;;
70800;SDS011;59616;52.170;5.386;2023-03-01T13:05:47;12.30;;;3.17;;
70800;SDS011;59616;52.170;5.386;2023-03-01T13:08:20;7.90;;;2.47;;
70800;SDS011;59616;52.170;5.386;2023-03-01T13:10:50;8.13;;;2.85;;
70800;SDS011;59616;52.170;5.386;2023-03-01T13:13:26;6.43;;;2.45;;
70800;SDS011;59616;52.170;5.386;2023-03-01T13:15:53;7.68;;;2.60;;
70800;SDS011;59616;52.170;5.386;2023-03-01T13:20:50;10.82;;;2.85;;
70800;SDS011;59616;52.170;5.386;2023-03-01T13:29:10;8.77;;;2.97;;
70800;SDS011;59616;52.170;5.386;2023-03-01T13:33:49;8.02;;;2.50;;
70800;SDS011;59616;52.170;5.386;2023-03-01T13:38:57;9.18;;;3.00;;
70800;SDS011;59616;52.170;5.386;2023-03-01T13:46:40;9.18;;;3.03;;
70800;SDS011;59616;52.170;5.386;2023-03-01T13:49:11;7.57;;;2.63;;
70800;SDS011;59616;52.170;5.386;2023-03-01T13:51:39;8.20;;;3.08;;
70800;SDS011;59616;52.170;5.386;2023-03-01T13:54:10;8.23;;;3.10;;
70800;SDS011;59616;52.170;5.386;2023-03-01T13:56:38;9.02;;;3.13;;
70800;SDS011;59616;52.170;5.386;2023-03-01T13:59:06;8.88;;;3.10;;
70800;SDS011;59616;52.170;5.386;2023-03-01T14:01:34;11.35;;;3.35;;
70800;SDS011;59616;52.170;5.386;2023-03-01T14:04:02;7.72;;;3.05;;
70800;SDS011;59616;52.170;5.386;2023-03-01T14:06:31;7.60;;;2.70;;
70800;SDS011;59616;52.170;5.386;2023-03-01T14:19:21;8.32;;;3.05;;
70800;SDS011;59616;52.170;5.386;2023-03-01T14:22:20;8.23;;;2.58;;
70800;SDS011;59616;52.170;5.386;2023-03-01T14:24:55;7.55;;;2.60;;
70800;SDS011;59616;52.170;5.386;2023-03-01T14:27:25;7.78;;;2.75;;
70800;SDS011;59616;52.170;5.386;2023-03-01T14:29:57;8.70;;;2.72;;
70800;SDS011;59616;52.170;5.386;2023-03-01T14:32:25;8.68;;;2.58;;
70800;SDS011;59616;52.170;5.386;2023-03-01T14:34:53;9.85;;;2.85;;
70800;SDS011;59616;52.170;5.386;2023-03-01T14:39:47;8.45;;;2.65;;
70800;SDS011;59616;52.170;5.386;2023-03-01T14:42:15;7.72;;;2.72;;
70800;SDS011;59616;52.170;5.386;2023-03-01T14:44:43;8.18;;;2.80;;
70800;SDS011;59616;52.170;5.386;2023-03-01T14:47:12;8.48;;;3.55;;
70800;SDS011;59616;52.170;5.386;2023-03-01T14:49:41;10.63;;;3.28;;
70800;SDS011;59616;52.170;5.386;2023-03-01T14:52:19;7.68;;;2.72;;
70800;SDS011;59616;52.170;5.386;2023-03-01T14:54:48;8.65;;;2.88;;
70800;SDS011;59616;52.170;5.386;2023-03-01T14:57:18;12.63;;;3.30;;
70800;SDS011;59616;52.170;5.386;2023-03-01T14:59:48;7.57;;;2.72;;
70800;SDS011;59616;52.170;5.386;2023-03-01T15:02:17;8.88;;;2.90;;
70800;SDS011;59616;52.170;5.386;2023-03-01T15:04:46;7.45;;;2.58;;
70800;SDS011;59616;52.170;5.386;2023-03-01T15:07:14;8.63;;;3.20;;
70800;SDS011;59616;52.170;5.386;2023-03-01T15:09:41;7.97;;;2.72;;
70800;SDS011;59616;52.170;5.386;2023-03-01T15:14:55;9.20;;;3.22;;
70800;SDS011;59616;52.170;5.386;2023-03-01T15:17:33;8.32;;;3.17;;
70800;SDS011;59616;52.170;5.386;2023-03-01T15:20:02;10.45;;;2.83;;
70800;SDS011;59616;52.170;5.386;2023-03-01T15:22:30;10.88;;;2.90;;
70800;SDS011;59616;52.170;5.386;2023-03-01T15:24:57;7.75;;;3.00;;
70800;SDS011;59616;52.170;5.386;2023-03-01T15:27:25;8.13;;;2.60;;
70800;SDS011;59616;52.170;5.386;2023-03-01T15:29:56;8.63;;;3.00;;
70800;SDS011;59616;52.170;5.386;2023-03-01T15:32:25;8.23;;;2.90;;
70800;SDS011;59616;52.170;5.386;2023-03-01T15:34:53;8.40;;;3.25;;
70800;SDS011;59616;52.170;5.386;2023-03-01T15:37:38;9.90;;;3.65;;
70800;SDS011;59616;52.170;5.386;2023-03-01T15:43:21;10.35;;;3.30;;
70800;SDS011;59616;52.170;5.386;2023-03-01T15:45:57;8.70;;;2.85;;
70800;SDS011;59616;52.170;5.386;2023-03-01T15:48:24;8.02;;;3.03;;
70800;SDS011;59616;52.170;5.386;2023-03-01T15:50:55;11.95;;;3.35;;
70800;SDS011;59616;52.170;5.386;2023-03-01T15:53:24;7.30;;;3.25;;
70800;SDS011;59616;52.170;5.386;2023-03-01T15:55:51;10.63;;;3.33;;
70800;SDS011;59616;52.170;5.386;2023-03-01T15:58:20;8.38;;;2.92;;
70800;SDS011;59616;52.170;5.386;2023-03-01T16:00:47;7.90;;;3.42;;
70800;SDS011;59616;52.170;5.386;2023-03-01T16:03:26;9.43;;;3.53;;
70800;SDS011;59616;52.170;5.386;2023-03-01T16:05:54;9.50;;;3.30;;
70800;SDS011;59616;52.170;5.386;2023-03-01T16:08:21;9.73;;;3.53;;
70800;SDS011;59616;52.170;5.386;2023-03-01T16:10:48;10.80;;;3.13;;
70800;SDS011;59616;52.170;5.386;2023-03-01T16:13:17;10.38;;;3.80;;
70800;SDS011;59616;52.170;5.386;2023-03-01T16:15:45;10.90;;;3.78;;
70800;SDS011;59616;52.170;5.386;2023-03-01T16:18:12;9.90;;;3.75;;
70800;SDS011;59616;52.170;5.386;2023-03-01T16:20:39;10.45;;;3.65;;
70800;SDS011;59616;52.170;5.386;2023-03-01T16:23:07;10.48;;;2.88;;
70800;SDS011;59616;52.170;5.386;2023-03-01T16:25:35;9.73;;;3.15;;
70800;SDS011;59616;52.170;5.386;2023-03-01T16:28:02;11.52;;;3.63;;
70800;SDS011;59616;52.170;5.386;2023-03-01T16:30:35;10.10;;;3.50;;
70800;SDS011;59616;52.170;5.386;2023-03-01T16:33:02;9.90;;;3.92;;
70800;SDS011;59616;52.170;5.386;2023-03-01T16:35:52;11.13;;;3.33;;
70800;SDS011;59616;52.170;5.386;2023-03-01T16:38:19;8.27;;;3.33;;
70800;SDS011;59616;52.170;5.386;2023-03-01T16:40:47;9.43;;;3.10;;
70800;SDS011;59616;52.170;5.386;2023-03-01T16:43:15;8.65;;;3.45;;
70800;SDS011;59616;52.170;5.386;2023-03-01T16:45:42;8.90;;;3.47;;
70800;SDS011;59616;52.170;5.386;2023-03-01T16:48:11;8.93;;;3.33;;
70800;SDS011;59616;52.170;5.386;2023-03-01T16:50:39;10.05;;;3.40;;
70800;SDS011;59616;52.170;5.386;2023-03-01T16:53:06;10.25;;;3.35;;
70800;SDS011;59616;52.170;5.386;2023-03-01T16:55:33;10.05;;;3.55;;
70800;SDS011;59616;52.170;5.386;2023-03-01T16:58:00;10.75;;;3.47;;
70800;SDS011;59616;52.170;5.386;2023-03-01T17:00:28;10.98;;;3.60;;
70800;SDS011;59616;52.170;5.386;2023-03-01T17:02:55;8.15;;;3.08;;
70800;SDS011;59616;52.170;5.386;2023-03-01T17:05:22;9.73;;;3.50;;
70800;SDS011;59616;52.170;5.386;2023-03-01T17:07:51;10.00;;;3.60;;
70800;SDS011;59616;52.170;5.386;2023-03-01T17:10:20;10.10;;;3.33;;
70800;SDS011;59616;52.170;5.386;2023-03-01T17:12:48;9.48;;;3.20;;
70800;SDS011;59616;52.170;5.386;2023-03-01T17:15:16;10.50;;;3.78;;
70800;SDS011;59616;52.170;5.386;2023-03-01T17:17:43;10.00;;;3.42;;
70800;SDS011;59616;52.170;5.386;2023-03-01T17:20:11;9.50;;;3.80;;
70800;SDS011;59616;52.170;5.386;2023-03-01T17:22:38;12.45;;;4.40;;
70800;SDS011;59616;52.170;5.386;2023-03-01T17:25:07;12.45;;;4.10;;
70800;SDS011;59616;52.170;5.386;2023-03-01T17:27:37;12.00;;;4.03;;
70800;SDS011;59616;52.170;5.386;2023-03-01T17:30:05;11.52;;;4.07;;
70800;SDS011;59616;52.170;5.386;2023-03-01T17:32:32;11.05;;;4.22;;
70800;SDS011;59616;52.170;5.386;2023-03-01T17:35:00;10.95;;;3.95;;
70800;SDS011;59616;52.170;5.386;2023-03-01T17:37:27;11.93;;;4.15;;
70800;SDS011;59616;52.170;5.386;2023-03-01T17:39:54;13.98;;;4.50;;
70800;SDS011;59616;52.170;5.386;2023-03-01T17:42:21;11.88;;;3.88;;